createdAt,value
2023-09-22T14:04:12.818Z,21.68
2023-09-22T14:08:25.267Z,21.20
2023-09-22T14:12:38.566Z,21.10
2023-09-22T14:16:52.679Z,21.02
2023-09-22T14:21:05.715Z,21.85
2023-09-22T14:25:20.261Z,21.47
2023-09-22T14:29:33.030Z,21.83
2023-09-22T14:33:46.234Z,21.93
2023-09-22T14:37:59.322Z,21.48
2023-09-22T14:42:11.907Z,21.79
2023-09-22T14:46:24.901Z,22.44
2023-09-22T14:50:37.888Z,21.59
2023-09-22T14:54:50.329Z,22.77
2023-09-22T14:59:02.797Z,22.75
2023-09-22T15:03:15.989Z,22.58
2023-09-22T15:07:28.403Z,21.89
2023-09-22T15:11:40.903Z,21.42
2023-09-22T15:15:53.418Z,21.72
2023-09-22T15:20:07.614Z,21.74
2023-09-22T15:24:20.064Z,21.93
2023-09-22T15:28:32.754Z,22.44
2023-09-22T15:32:45.288Z,22.68
2023-09-22T15:36:58.110Z,23.72
2023-09-22T15:41:11.675Z,23.58
2023-09-22T15:45:24.190Z,25.01
2023-09-22T15:49:36.815Z,23.97
2023-09-22T15:53:50.066Z,24.00
2023-09-22T15:58:02.565Z,24.60
2023-09-22T16:02:14.996Z,25.21
2023-09-22T16:06:27.731Z,25.36
2023-09-22T16:10:44.638Z,25.82
2023-09-22T16:14:57.272Z,26.68
2023-09-22T16:19:10.452Z,25.18
2023-09-22T16:23:22.987Z,27.46
2023-09-22T16:27:35.671Z,26.54
2023-09-22T16:31:48.081Z,27.51
2023-09-22T16:36:00.570Z,27.08
2023-09-22T16:40:13.573Z,28.14
2023-09-22T16:44:26.272Z,27.97
2023-09-22T16:48:39.149Z,29.68
2023-09-22T16:52:51.570Z,28.71
2023-09-22T16:57:05.117Z,28.86
2023-09-22T17:01:17.625Z,27.65
2023-09-22T17:05:30.468Z,28.04
2023-09-22T17:09:43.416Z,28.69
2023-09-22T17:13:55.925Z,27.96
2023-09-22T17:18:10.519Z,28.37
2023-09-22T17:22:25.732Z,29.49
2023-09-22T17:26:38.222Z,29.44
2023-09-22T17:30:59.092Z,29.38
2023-09-22T17:35:13.298Z,31.08
2023-09-22T17:39:25.652Z,31.01
2023-09-22T17:43:38.143Z,31.45
2023-09-22T17:47:50.872Z,32.63
2023-09-22T17:52:03.521Z,32.23
2023-09-22T17:56:16.213Z,31.72
2023-09-22T18:00:29.931Z,32.48
2023-09-22T18:04:42.723Z,33.43
2023-09-22T18:08:55.240Z,32.81
2023-09-22T18:13:10.243Z,32.30
2023-09-22T18:17:23.415Z,32.43
2023-09-22T18:21:36.363Z,33.61
2023-09-22T18:26:09.521Z,33.08
2023-09-22T18:30:23.172Z,33.98
2023-09-22T18:34:36.324Z,33.67
2023-09-22T18:38:49.062Z,33.16
2023-09-22T18:43:02.749Z,33.02
2023-09-22T18:47:15.403Z,32.97
2023-09-22T18:51:29.119Z,34.08
2023-09-22T18:55:51.600Z,33.66
2023-09-22T19:00:05.528Z,33.21
2023-09-22T19:04:19.192Z,33.78
2023-09-22T19:08:32.054Z,34.24
2023-09-22T19:12:44.564Z,33.85
2023-09-22T19:16:57.149Z,33.85
2023-09-22T19:21:09.616Z,33.95
2023-09-22T19:25:22.630Z,34.46
2023-09-22T19:29:35.192Z,35.30
2023-09-22T19:33:48.253Z,34.54
2023-09-22T19:38:01.682Z,34.42
2023-09-22T19:42:14.322Z,34.47
2023-09-22T19:46:28.365Z,35.04
2023-09-22T19:50:41.005Z,35.59
2023-09-22T19:54:53.718Z,35.93
2023-09-22T19:59:07.578Z,35.87
2023-09-22T20:03:20.519Z,35.67
2023-09-22T20:07:34.237Z,34.59
2023-09-22T20:11:48.159Z,35.17
2023-09-22T20:16:02.356Z,35.57
2023-09-22T20:20:16.534Z,36.84
2023-09-22T20:24:29.736Z,36.89
2023-09-22T20:28:42.298Z,36.53
2023-09-22T20:32:55.011Z,36.31
2023-09-22T20:37:07.569Z,36.40
2023-09-22T20:41:20.096Z,36.45
2023-09-22T20:45:32.773Z,36.69
2023-09-22T20:49:46.618Z,36.63
2023-09-22T20:53:59.532Z,37.48
2023-09-22T20:58:12.311Z,37.69
2023-09-22T21:02:24.938Z,38.93
2023-09-22T21:06:37.920Z,39.21
2023-09-22T21:10:56.682Z,39.95
2023-09-22T21:15:11.533Z,38.61
2023-09-22T21:19:26.046Z,39.09
2023-09-22T21:23:38.799Z,38.90
2023-09-22T21:27:52.431Z,39.63
2023-09-22T21:32:05.150Z,38.58
2023-09-22T21:36:19.428Z,39.02
2023-09-22T21:40:32.369Z,39.92
2023-09-22T21:44:45.440Z,40.63
2023-09-22T21:48:58.058Z,41.11
2023-09-22T21:53:11.129Z,42.33
2023-09-22T21:57:24.027Z,42.93
2023-09-22T22:01:36.572Z,42.21
2023-09-22T22:05:49.131Z,42.84
2023-09-22T22:10:02.269Z,43.51
2023-09-22T22:14:16.260Z,43.63
2023-09-22T22:18:28.827Z,41.62
2023-09-22T22:22:43.148Z,43.16
2023-09-22T22:26:56.877Z,42.81
2023-09-22T22:31:09.583Z,43.26
2023-09-22T22:35:22.542Z,43.91
2023-09-22T22:39:35.556Z,43.54
2023-09-22T22:43:48.222Z,42.34
2023-09-22T22:48:05.176Z,42.63
2023-09-22T22:52:18.044Z,43.15
2023-09-22T22:56:30.697Z,44.34
2023-09-22T23:00:43.401Z,45.76
2023-09-22T23:04:56.498Z,46.31
2023-09-22T23:09:15.506Z,45.29
2023-09-22T23:13:30.317Z,45.74
2023-09-22T23:17:42.962Z,46.00
2023-09-22T23:21:56.128Z,46.35
2023-09-22T23:26:08.645Z,47.19
2023-09-22T23:30:24.346Z,47.61
2023-09-22T23:34:37.653Z,47.40
2023-09-22T23:38:50.245Z,47.37
2023-09-22T23:43:04.909Z,47.24
2023-09-22T23:47:17.429Z,45.37
2023-09-22T23:51:29.958Z,46.67
2023-09-22T23:55:42.443Z,46.27
2023-09-22T23:59:55.039Z,46.85
